createdAt,value
2023-04-16T00:00:38.541Z,97462.41
2023-04-16T00:02:40.035Z,97468.00
2023-04-16T00:04:41.559Z,97477.81
2023-04-16T00:06:43.072Z,97467.38
2023-04-16T00:08:44.416Z,97469.75
2023-04-16T00:10:45.861Z,97468.81
2023-04-16T00:12:47.193Z,97472.03
2023-04-16T00:14:49.188Z,97466.91
2023-04-16T00:16:50.578Z,97475.34
2023-04-16T00:18:51.949Z,97474.50
2023-04-16T00:20:53.593Z,97475.31
2023-04-16T00:22:54.878Z,97473.69
2023-04-16T00:24:56.203Z,97472.84
2023-04-16T00:26:57.579Z,97473.06
2023-04-16T00:28:58.906Z,97474.94
2023-04-16T00:31:00.418Z,97480.16
2023-04-16T00:33:02.950Z,97472.69
2023-04-16T00:35:04.348Z,97475.44
2023-04-16T00:37:05.636Z,97481.47
2023-04-16T00:39:07.100Z,97480.78
2023-04-16T00:41:08.509Z,97477.53
2023-04-16T00:43:09.804Z,97475.94
2023-04-16T00:45:11.161Z,97473.50
2023-04-16T00:47:12.470Z,97469.34
2023-04-16T00:49:13.802Z,97477.09
2023-04-16T00:51:15.435Z,97481.50
2023-04-16T00:53:16.773Z,97485.00
2023-04-16T00:55:18.968Z,97477.34
2023-04-16T00:57:21.126Z,97474.03
2023-04-16T00:59:22.419Z,97482.56
2023-04-16T01:01:23.801Z,97476.69
2023-04-16T01:03:25.360Z,97484.41
2023-04-16T01:05:26.792Z,97485.28
2023-04-16T01:07:28.101Z,97482.75
2023-04-16T01:09:29.398Z,97478.47
2023-04-16T01:11:30.722Z,97481.03
2023-04-16T01:13:32.052Z,97486.22
2023-04-16T01:15:33.361Z,97482.88
2023-04-16T01:17:34.713Z,97487.19
2023-04-16T01:19:36.385Z,97479.59
2023-04-16T01:21:37.711Z,97478.75
2023-04-16T01:23:39.054Z,97479.59
2023-04-16T01:25:40.372Z,97491.53
2023-04-16T01:27:41.677Z,97487.28
2023-04-16T01:29:43.044Z,97491.53
2023-04-16T01:31:44.392Z,97490.69
2023-04-16T01:33:45.822Z,97373.78
2023-04-16T01:35:47.157Z,97487.16
2023-04-16T01:37:48.457Z,97489.66
2023-04-16T01:39:49.768Z,97493.81
2023-04-16T01:41:51.177Z,97490.34
2023-04-16T01:43:52.500Z,97490.13
2023-04-16T01:45:53.908Z,97489.28
2023-04-16T01:47:55.304Z,97489.25
2023-04-16T01:49:56.643Z,97494.22
2023-04-16T01:51:57.952Z,97499.16
2023-04-16T01:53:59.282Z,97498.22
2023-04-16T01:56:00.612Z,97497.28
2023-04-16T01:58:02.263Z,97498.94
2023-04-16T02:00:03.712Z,97501.34
2023-04-16T02:02:05.093Z,97499.56
2023-04-16T02:04:07.474Z,97505.47
2023-04-16T02:06:08.927Z,97508.78
2023-04-16T02:08:10.226Z,97504.50
2023-04-16T02:10:11.507Z,97504.50
2023-04-16T02:12:12.814Z,97510.47
2023-04-16T02:14:15.316Z,97510.56
2023-04-16T02:16:17.055Z,97508.03
2023-04-16T02:18:18.410Z,97509.78
2023-04-16T02:20:19.699Z,97514.03
2023-04-16T02:22:20.998Z,97513.16
2023-04-16T02:24:22.322Z,97508.25
2023-04-16T02:26:23.669Z,97512.63
2023-04-16T02:28:24.975Z,97516.97
2023-04-16T02:30:26.572Z,97521.13
2023-04-16T02:32:27.893Z,97521.22
2023-04-16T02:34:29.211Z,97516.97
2023-04-16T02:36:31.832Z,97515.41
2023-04-16T02:38:33.157Z,97521.41
2023-04-16T02:40:34.474Z,97521.47
2023-04-16T02:42:35.810Z,97527.38
2023-04-16T02:44:37.121Z,97520.72
2023-04-16T02:46:38.458Z,97525.03
2023-04-16T02:48:39.832Z,97525.09
2023-04-16T02:50:41.169Z,97532.75
2023-04-16T02:52:42.486Z,97528.56
2023-04-16T02:54:43.775Z,97531.09
2023-04-16T02:56:45.114Z,97524.41
2023-04-16T02:58:46.411Z,97529.56
2023-04-16T03:00:47.710Z,97519.63
2023-04-16T03:02:49.171Z,97539.47
2023-04-16T03:04:50.742Z,97527.78
2023-04-16T03:06:52.068Z,97534.69
2023-04-16T03:08:53.362Z,97536.34
2023-04-16T03:10:54.702Z,97538.03
2023-04-16T03:12:56.038Z,97538.78
2023-04-16T03:14:57.363Z,97535.41
2023-04-16T03:16:58.653Z,97533.66
2023-04-16T03:18:59.982Z,97537.00
2023-04-16T03:21:02.149Z,97544.59
2023-04-16T03:23:03.499Z,97541.09
2023-04-16T03:25:05.044Z,97534.19
2023-04-16T03:27:06.342Z,97532.38
2023-04-16T03:29:08.001Z,97543.31
2023-04-16T03:31:09.554Z,97547.50
2023-04-16T03:33:11.223Z,97549.06
2023-04-16T03:35:12.935Z,97546.44
2023-04-16T03:37:14.250Z,97543.84
2023-04-16T03:39:15.591Z,97550.69
2023-04-16T03:41:17.027Z,97543.00
2023-04-16T03:43:18.316Z,97541.31
2023-04-16T03:45:19.623Z,97545.56
2023-04-16T03:47:21.239Z,97552.41
2023-04-16T03:49:22.573Z,97560.16
2023-04-16T03:51:23.924Z,97556.81
2023-04-16T03:53:25.255Z,97558.56
2023-04-16T03:55:26.546Z,97562.09
2023-04-16T03:57:27.836Z,97565.53
2023-04-16T03:59:29.170Z,97567.31
2023-04-16T04:01:30.538Z,97569.94
2023-04-16T04:03:32.083Z,97574.31
2023-04-16T04:05:33.513Z,97576.94
2023-04-16T04:07:34.811Z,97571.06
2023-04-16T04:09:36.146Z,97581.38
2023-04-16T04:11:37.448Z,97575.41
2023-04-16T04:13:38.803Z,97585.72
2023-04-16T04:15:40.311Z,97588.28
2023-04-16T04:17:41.626Z,97585.81
2023-04-16T04:19:54.285Z,97596.91
2023-04-16T04:22:02.119Z,97588.34
2023-04-16T04:24:03.571Z,97591.69
2023-04-16T04:26:05.734Z,97598.41
2023-04-16T04:28:07.152Z,97599.13
2023-04-16T04:30:08.467Z,97608.47
2023-04-16T04:32:09.761Z,97612.72
2023-04-16T04:34:11.220Z,97614.34
2023-04-16T04:36:12.548Z,97613.50
2023-04-16T04:38:16.159Z,97616.91
2023-04-16T04:40:17.623Z,97621.94
2023-04-16T04:42:19.008Z,97618.34
2023-04-16T04:44:20.362Z,97619.91
2023-04-16T04:46:21.909Z,97618.03
2023-04-16T04:48:26.565Z,97624.84
2023-04-16T04:50:28.058Z,97621.44
2023-04-16T04:52:29.359Z,97620.53
2023-04-16T04:54:30.651Z,97623.00
2023-04-16T04:56:31.967Z,97624.72
2023-04-16T04:58:33.271Z,97631.56
2023-04-16T05:00:34.684Z,97631.56
2023-04-16T05:02:36.381Z,97636.63
2023-04-16T05:04:37.848Z,97639.25
2023-04-16T05:06:39.178Z,97640.06
2023-04-16T05:08:40.541Z,97640.97
2023-04-16T05:10:41.832Z,97640.13
2023-04-16T05:12:43.148Z,97643.59
2023-04-16T05:14:44.467Z,97647.06
2023-04-16T05:16:45.942Z,97650.50
2023-04-16T05:18:47.313Z,97645.44
2023-04-16T05:20:48.612Z,97652.44
2023-04-16T05:22:49.911Z,97651.75
2023-04-16T05:24:51.347Z,97662.94
2023-04-16T05:26:52.643Z,97650.22
2023-04-16T05:28:54.055Z,97659.69
2023-04-16T05:30:55.589Z,97667.44
2023-04-16T05:32:56.939Z,97666.66
2023-04-16T05:34:58.273Z,97668.44
2023-04-16T05:36:59.612Z,97659.94
2023-04-16T05:39:00.899Z,97665.06
2023-04-16T05:41:02.213Z,97669.31
2023-04-16T05:43:03.565Z,97675.25
2023-04-16T05:45:04.934Z,97667.38
2023-04-16T05:47:07.726Z,97561.94
2023-04-16T05:49:09.305Z,97674.94
2023-04-16T05:51:10.933Z,97679.09
2023-04-16T05:53:14.040Z,97687.63
2023-04-16T05:55:15.605Z,97689.28
2023-04-16T05:57:16.946Z,97690.91
2023-04-16T05:59:18.239Z,97682.44
2023-04-16T06:01:19.537Z,97686.78
2023-04-16T06:03:21.008Z,97692.91
2023-04-16T06:05:25.492Z,97685.41
2023-04-16T06:07:26.790Z,97690.69
2023-04-16T06:09:28.363Z,97694.25
2023-04-16T06:11:29.654Z,97696.94
2023-04-16T06:13:31.008Z,97697.03
2023-04-16T06:15:35.167Z,97697.91
2023-04-16T06:17:36.504Z,97696.19
2023-04-16T06:19:37.851Z,97696.19
2023-04-16T06:21:39.185Z,97705.53
2023-04-16T06:23:40.628Z,97707.97
2023-04-16T06:25:41.976Z,97705.25
2023-04-16T06:27:43.287Z,97701.69
2023-04-16T06:29:44.597Z,97706.63
2023-04-16T06:31:45.939Z,97702.19
2023-04-16T06:33:47.353Z,97701.22
2023-04-16T06:35:48.723Z,97699.47
2023-04-16T06:37:50.079Z,97701.94
2023-04-16T06:39:51.423Z,97705.19
2023-04-16T06:41:52.743Z,97703.25
2023-04-16T06:43:54.062Z,97706.53
2023-04-16T06:45:55.350Z,97709.00
2023-04-16T06:47:58.936Z,97707.22
2023-04-16T06:50:00.362Z,97698.66
2023-04-16T06:52:03.307Z,97712.38
2023-04-16T06:54:06.235Z,97718.53
2023-04-16T06:56:07.636Z,97713.47
2023-04-16T06:58:08.980Z,97710.09
2023-04-16T07:00:10.614Z,97715.22
2023-04-16T07:02:12.085Z,97713.50
2023-04-16T07:04:16.154Z,97708.16
2023-04-16T07:06:17.460Z,97714.88
2023-04-16T07:08:18.784Z,97719.13
2023-04-16T07:10:20.104Z,97714.78
2023-04-16T07:12:22.587Z,97723.22
2023-04-16T07:14:24.304Z,97726.75
2023-04-16T07:16:25.681Z,97725.59
2023-04-16T07:18:27.260Z,97721.50
2023-04-16T07:20:28.657Z,97726.50
2023-04-16T07:22:30.306Z,97722.72
2023-04-16T07:24:32.331Z,97725.47
2023-04-16T07:26:33.648Z,97728.22
2023-04-16T07:28:34.985Z,97731.78
2023-04-16T07:30:36.405Z,97725.13
2023-04-16T07:32:37.845Z,97731.09
2023-04-16T07:34:39.296Z,97732.91
2023-04-16T07:36:43.630Z,97724.50
2023-04-16T07:38:44.937Z,97733.09
2023-04-16T07:40:46.341Z,97740.78
2023-04-16T07:42:48.357Z,97742.47
2023-04-16T07:44:49.681Z,97728.91
2023-04-16T07:46:51.115Z,97739.13
2023-04-16T07:48:52.463Z,97739.16
2023-04-16T07:50:53.759Z,97741.69
2023-04-16T07:52:55.345Z,97745.09
2023-04-16T07:54:56.639Z,97743.41
2023-04-16T07:56:57.939Z,97746.78
2023-04-16T07:59:07.910Z,97748.56
2023-04-16T08:01:20.471Z,97746.28
2023-04-16T08:03:21.951Z,97743.25
2023-04-16T08:05:23.520Z,97746.59
2023-04-16T08:07:24.910Z,97739.16
2023-04-16T08:09:29.287Z,97736.16
2023-04-16T08:11:30.731Z,97734.69
2023-04-16T08:13:33.494Z,97741.31
2023-04-16T08:15:35.063Z,97736.38
2023-04-16T08:17:37.620Z,97737.34
2023-04-16T08:19:39.307Z,97736.19
2023-04-16T08:21:40.723Z,97743.94
2023-04-16T08:23:42.053Z,97746.16
2023-04-16T08:25:43.350Z,97748.13
2023-04-16T08:27:47.891Z,97748.88
2023-04-16T08:29:49.268Z,97752.97
2023-04-16T08:31:50.608Z,97765.97
2023-04-16T08:33:51.967Z,97762.28
2023-04-16T08:35:53.266Z,97758.47
2023-04-16T08:37:54.631Z,97759.22
2023-04-16T08:39:56.034Z,97766.25
2023-04-16T08:41:57.337Z,97763.06
2023-04-16T08:43:58.761Z,97763.03
2023-04-16T08:46:00.061Z,97769.00
2023-04-16T08:48:01.408Z,97769.03
2023-04-16T08:50:02.799Z,97766.00
2023-04-16T08:52:04.331Z,97770.66
2023-04-16T08:54:05.660Z,97770.69
2023-04-16T08:56:06.976Z,97772.34
2023-04-16T08:58:08.294Z,97769.59
2023-04-16T09:00:09.980Z,97762.19
2023-04-16T09:02:11.354Z,97773.44
2023-04-16T09:04:12.840Z,97770.91
2023-04-16T09:06:14.206Z,97776.22
2023-04-16T09:08:15.556Z,97778.94
2023-04-16T09:10:16.879Z,97779.06
2023-04-16T09:12:18.188Z,97779.13
2023-04-16T09:14:19.581Z,97776.88
2023-04-16T09:16:21.516Z,97778.06
2023-04-16T09:18:22.901Z,97781.53
2023-04-16T09:20:24.558Z,97783.31
2023-04-16T09:22:28.613Z,97781.31
2023-04-16T09:24:29.970Z,97791.91
2023-04-16T09:26:31.307Z,97794.31
2023-04-16T09:28:35.719Z,97793.00
2023-04-16T09:30:37.575Z,97795.00
2023-04-16T09:32:38.935Z,97798.72
2023-04-16T09:34:40.251Z,97792.13
2023-04-16T09:36:41.569Z,97801.72
2023-04-16T09:38:42.887Z,97801.91
2023-04-16T09:40:44.299Z,97801.28
2023-04-16T09:42:45.724Z,97811.63
2023-04-16T09:44:47.380Z,97671.88
2023-04-16T09:46:48.695Z,97805.00
2023-04-16T09:48:50.021Z,97811.94
2023-04-16T09:50:51.467Z,97809.44
2023-04-16T09:52:52.808Z,97823.94
2023-04-16T09:54:54.223Z,97823.31
2023-04-16T09:56:55.630Z,97824.16
2023-04-16T09:58:57.615Z,97825.00
2023-04-16T10:00:58.968Z,97824.94
2023-04-16T10:03:00.688Z,97829.13
2023-04-16T10:05:02.264Z,97832.47
2023-04-16T10:07:04.460Z,97831.59
2023-04-16T10:09:05.955Z,97828.97
2023-04-16T10:11:07.256Z,97834.88
2023-04-16T10:13:08.590Z,97827.13
2023-04-16T10:15:09.936Z,97827.78
2023-04-16T10:17:11.677Z,97828.47
2023-04-16T10:19:13.100Z,97829.16
2023-04-16T10:21:15.449Z,97824.69
2023-04-16T10:23:16.800Z,97832.13
2023-04-16T10:25:18.089Z,97832.84
2023-04-16T10:27:19.389Z,97837.09
2023-04-16T10:29:23.567Z,97829.28
2023-04-16T10:31:24.921Z,97833.47
2023-04-16T10:33:26.714Z,97824.09
2023-04-16T10:35:28.006Z,97827.50
2023-04-16T10:37:29.290Z,97825.69
2023-04-16T10:39:30.804Z,97827.56
2023-04-16T10:41:32.130Z,97831.84
2023-04-16T10:43:33.436Z,97825.88
2023-04-16T10:45:36.072Z,97831.84
2023-04-16T10:47:37.443Z,97824.19
2023-04-16T10:49:38.872Z,97827.72
2023-04-16T10:51:46.341Z,97826.16
2023-04-16T10:53:47.682Z,97827.88
2023-04-16T10:55:48.975Z,97826.22
2023-04-16T10:57:50.350Z,97824.53
2023-04-16T10:59:51.749Z,97823.84
2023-04-16T11:01:53.299Z,97818.16
2023-04-16T11:03:55.027Z,97824.34
2023-04-16T11:05:56.510Z,97825.03
2023-04-16T11:08:03.464Z,97819.84
2023-04-16T11:10:05.193Z,97823.13
2023-04-16T11:12:06.537Z,97826.53
2023-04-16T11:14:07.836Z,97820.56
2023-04-16T11:16:09.174Z,97824.97
2023-04-16T11:18:11.004Z,97821.56
2023-04-16T11:20:17.398Z,97826.66
2023-04-16T11:22:21.686Z,97820.75
2023-04-16T11:24:24.634Z,97824.13
2023-04-16T11:26:27.520Z,97821.34
2023-04-16T11:28:28.825Z,97822.13
2023-04-16T11:30:33.616Z,97834.03
2023-04-16T11:32:34.978Z,97830.63
2023-04-16T11:34:36.334Z,97824.75
2023-04-16T11:36:37.632Z,97825.66
2023-04-16T11:38:40.953Z,97833.41
2023-04-16T11:40:42.273Z,97832.56
2023-04-16T11:42:44.292Z,97834.38
2023-04-16T11:44:45.775Z,97836.06
2023-04-16T11:46:47.177Z,97836.19
2023-04-16T11:48:48.537Z,97837.06
2023-04-16T11:50:49.828Z,97843.88
2023-04-16T11:52:51.330Z,97841.38
2023-04-16T11:54:52.667Z,97846.41
2023-04-16T11:56:54.004Z,97848.91
2023-04-16T11:58:55.414Z,97844.66
2023-04-16T12:01:02.485Z,97848.84
2023-04-16T12:03:03.962Z,97848.00
2023-04-16T12:05:05.480Z,97845.41
2023-04-16T12:07:06.940Z,97845.22
2023-04-16T12:09:08.888Z,97846.16
2023-04-16T12:11:10.426Z,97846.22
2023-04-16T12:13:12.604Z,97840.25
2023-04-16T12:15:14.058Z,97846.28
2023-04-16T12:17:15.677Z,97845.44
2023-04-16T12:19:17.193Z,97853.94
2023-04-16T12:21:18.600Z,97852.94
2023-04-16T12:23:19.937Z,97854.59
2023-04-16T12:25:21.360Z,97861.41
2023-04-16T12:27:22.991Z,97864.81
2023-04-16T12:29:24.389Z,97859.81
2023-04-16T12:31:25.907Z,97865.00
2023-04-16T12:33:27.411Z,97861.63
2023-04-16T12:35:28.713Z,97872.78
2023-04-16T12:37:30.100Z,97867.78
2023-04-16T12:39:31.427Z,97861.00
2023-04-16T12:41:32.759Z,97865.31
2023-04-16T12:43:34.075Z,97717.81
2023-04-16T12:45:35.380Z,97855.16
2023-04-16T12:47:36.756Z,97856.81
2023-04-16T12:49:38.133Z,97861.84
2023-04-16T12:51:39.582Z,97857.59
2023-04-16T12:53:40.988Z,97860.94
2023-04-16T12:55:42.528Z,97860.06
2023-04-16T12:57:43.893Z,97849.69
2023-04-16T12:59:47.001Z,97853.16
2023-04-16T13:01:48.480Z,97851.38
2023-04-16T13:03:50.034Z,97848.69
2023-04-16T13:05:51.825Z,97848.41
2023-04-16T13:07:53.158Z,97850.41
2023-04-16T13:09:54.473Z,97849.50
2023-04-16T13:11:55.902Z,97857.25
2023-04-16T13:13:57.338Z,97861.72
2023-04-16T13:16:04.086Z,97859.06
2023-04-16T13:18:05.562Z,97854.59
2023-04-16T13:20:10.533Z,97859.56
2023-04-16T13:22:11.916Z,97855.53
2023-04-16T13:24:13.298Z,97862.03
2023-04-16T13:26:17.484Z,97860.44
2023-04-16T13:28:18.782Z,97866.94
2023-04-16T13:30:20.258Z,97874.53
2023-04-16T13:32:21.605Z,97865.22
2023-04-16T13:34:22.945Z,97866.50
2023-04-16T13:36:26.339Z,97874.41
2023-04-16T13:38:28.919Z,97861.00
2023-04-16T13:40:33.312Z,97870.22
2023-04-16T13:42:34.636Z,97870.34
2023-04-16T13:44:35.999Z,97864.00
2023-04-16T13:46:37.355Z,97868.47
2023-04-16T13:48:38.740Z,97863.75
2023-04-16T13:50:40.308Z,97867.94
2023-04-16T13:52:47.449Z,97727.66
2023-04-16T13:54:49.783Z,97864.59
2023-04-16T13:56:51.469Z,97856.41
2023-04-16T13:58:52.777Z,97862.66
2023-04-16T14:00:54.218Z,97860.38
2023-04-16T14:02:55.723Z,97864.34
2023-04-16T14:04:57.214Z,97859.41
2023-04-16T14:06:58.531Z,97863.63
2023-04-16T14:08:59.947Z,97854.25
2023-04-16T14:11:02.132Z,97868.66
2023-04-16T14:13:03.506Z,97860.19
2023-04-16T14:15:04.982Z,97866.03
2023-04-16T14:17:07.551Z,97858.88
2023-04-16T14:19:09.755Z,97858.41
2023-04-16T14:21:11.389Z,97852.88
2023-04-16T14:23:15.817Z,97857.72
2023-04-16T14:25:17.770Z,97846.63
2023-04-16T14:27:19.098Z,97852.84
2023-04-16T14:29:23.408Z,97854.88
2023-04-16T14:31:25.464Z,97846.91
2023-04-16T14:33:27.731Z,97841.72
2023-04-16T14:35:29.088Z,97853.75
2023-04-16T14:37:30.532Z,97851.44
2023-04-16T14:39:31.871Z,97867.94
2023-04-16T14:41:35.831Z,97868.47
2023-04-16T14:43:39.228Z,97859.44
2023-04-16T14:45:41.830Z,97869.03
2023-04-16T14:47:47.680Z,97864.88
2023-04-16T14:49:49.113Z,97875.25
2023-04-16T14:51:52.370Z,97878.75
2023-04-16T14:53:53.685Z,97872.91
2023-04-16T14:55:58.119Z,97873.78
2023-04-16T14:57:59.948Z,97879.78
2023-04-16T15:00:02.301Z,97885.78
2023-04-16T15:02:03.815Z,97880.66
2023-04-16T15:04:05.263Z,97900.25
2023-04-16T15:06:06.780Z,97888.38
2023-04-16T15:08:08.088Z,97892.59
2023-04-16T15:10:09.678Z,97895.59
2023-04-16T15:12:11.131Z,97889.16
2023-04-16T15:14:12.730Z,97888.63
2023-04-16T15:16:14.338Z,97893.34
2023-04-16T15:18:16.438Z,97895.16
2023-04-16T15:20:17.772Z,97901.41
2023-04-16T15:22:19.161Z,97895.13
2023-04-16T15:24:21.198Z,97903.41
2023-04-16T15:26:23.151Z,97903.19
2023-04-16T15:28:24.764Z,97905.63
2023-04-16T15:30:26.107Z,97904.78
2023-04-16T15:32:27.433Z,97907.69
2023-04-16T15:34:38.060Z,97907.69
2023-04-16T15:38:41.775Z,97906.50
2023-04-16T15:40:43.131Z,97909.63
2023-04-16T15:42:47.489Z,97914.06
2023-04-16T15:44:48.814Z,97909.00
2023-04-16T15:46:50.323Z,97908.78
2023-04-16T15:48:54.351Z,97913.88
2023-04-16T15:50:56.056Z,97919.78
2023-04-16T15:52:57.377Z,97911.22
2023-04-16T15:54:58.719Z,97919.69
2023-04-16T15:57:00.024Z,97916.44
2023-04-16T15:59:04.457Z,97921.88
2023-04-16T16:01:06.027Z,97916.69
2023-04-16T16:03:07.996Z,97923.97
2023-04-16T16:05:10.550Z,97919.06
2023-04-16T16:07:14.748Z,97922.69
2023-04-16T16:09:16.134Z,97928.34
2023-04-16T16:11:17.782Z,97928.28
2023-04-16T16:13:19.177Z,97933.97
2023-04-16T16:15:20.706Z,97938.88
2023-04-16T16:17:22.082Z,97941.47
2023-04-16T16:19:23.447Z,97940.75
2023-04-16T16:21:24.753Z,97938.06
2023-04-16T16:23:26.141Z,97942.31
2023-04-16T16:25:27.494Z,97938.94
2023-04-16T16:27:28.835Z,97935.75
2023-04-16T16:29:30.415Z,97947.63
2023-04-16T16:31:31.803Z,97949.66
2023-04-16T16:33:33.193Z,97954.09
2023-04-16T16:35:34.500Z,97950.06
2023-04-16T16:37:35.791Z,97956.47
2023-04-16T16:39:38.710Z,97952.13
2023-04-16T16:41:43.250Z,97955.63
2023-04-16T16:43:44.584Z,97956.81
2023-04-16T16:45:46.510Z,97955.03
2023-04-16T16:47:50.865Z,97954.28
2023-04-16T16:49:57.365Z,97957.59
2023-04-16T16:51:58.709Z,97956.81
2023-04-16T16:54:00.003Z,97963.63
2023-04-16T16:56:02.159Z,97962.91
2023-04-16T16:58:03.579Z,97967.19
2023-04-16T17:00:11.228Z,97966.72
2023-04-16T17:02:13.334Z,97967.28
2023-04-16T17:06:16.910Z,97972.19
2023-04-16T17:08:18.267Z,97967.63
2023-04-16T17:10:22.506Z,97974.56
2023-04-16T17:14:31.188Z,97976.56
2023-04-16T17:16:35.323Z,97983.25
2023-04-16T17:18:36.631Z,97987.56
2023-04-16T17:20:38.036Z,97990.09
2023-04-16T17:22:39.564Z,97987.44
2023-04-16T17:24:41.220Z,97991.72
2023-04-16T17:26:42.658Z,97989.94
2023-04-16T17:28:48.023Z,97995.41
2023-04-16T17:30:49.317Z,97995.56
2023-04-16T17:32:53.787Z,97993.28
2023-04-16T17:34:55.447Z,97997.81
2023-04-16T17:36:59.771Z,97999.00
2023-04-16T17:39:01.080Z,97993.88
2023-04-16T17:41:05.138Z,97999.22
2023-04-16T17:43:06.466Z,97999.75
2023-04-16T17:45:07.795Z,98005.22
2023-04-16T17:47:12.114Z,98005.00
2023-04-16T17:49:13.458Z,98009.31
2023-04-16T17:51:16.498Z,98005.16
2023-04-16T17:53:17.885Z,97999.19
2023-04-16T17:55:19.291Z,98006.09
2023-04-16T17:57:23.987Z,98010.66
2023-04-16T17:59:25.335Z,98004.59
2023-04-16T18:01:27.468Z,98009.84
2023-04-16T18:03:28.927Z,98013.50
2023-04-16T18:05:30.540Z,98010.59
2023-04-16T18:07:35.015Z,98013.00
2023-04-16T18:09:36.739Z,98007.78
2023-04-16T18:11:41.117Z,98014.44
2023-04-16T18:13:43.595Z,98018.72
2023-04-16T18:15:47.918Z,98018.66
2023-04-16T18:17:49.274Z,98025.28
2023-04-16T18:19:52.123Z,98023.59
2023-04-16T18:21:53.500Z,98028.72
2023-04-16T18:23:54.820Z,98030.34
2023-04-16T18:25:56.115Z,98019.41
2023-04-16T18:27:58.798Z,98022.00
2023-04-16T18:30:00.332Z,98025.38
2023-04-16T18:32:04.401Z,98028.81
2023-04-16T18:34:06.385Z,98032.44
2023-04-16T18:36:16.807Z,98029.50
2023-04-16T18:38:18.127Z,98033.78
2023-04-16T18:40:19.440Z,98042.28
2023-04-16T18:42:20.876Z,98038.81
2023-04-16T18:44:23.175Z,98049.16
2023-04-16T18:46:27.601Z,98056.50
2023-04-16T18:48:32.425Z,98056.75
2023-04-16T18:50:33.751Z,98053.97
2023-04-16T18:52:35.709Z,98054.47
2023-04-16T18:54:37.192Z,98073.09
2023-04-16T18:56:41.437Z,98065.00
2023-04-16T18:58:43.289Z,98066.13
2023-04-16T19:00:44.664Z,98064.63
2023-04-16T19:02:46.227Z,98068.09
2023-04-16T19:04:50.567Z,98065.72
2023-04-16T19:06:51.856Z,98067.50
2023-04-16T19:08:53.150Z,98061.59
2023-04-16T19:10:54.443Z,98064.25
2023-04-16T19:12:58.711Z,98062.59
2023-04-16T19:15:00.070Z,98066.00
2023-04-16T19:17:01.399Z,98066.84
2023-04-16T19:19:02.785Z,98065.13
2023-04-16T19:21:04.259Z,98066.00
2023-04-16T19:23:05.971Z,98068.53
2023-04-16T19:25:07.759Z,98068.53
2023-04-16T19:27:09.080Z,98072.91
2023-04-16T19:29:10.564Z,98064.63
2023-04-16T19:31:12.078Z,98061.47
2023-04-16T19:33:13.472Z,98065.53
2023-04-16T19:35:14.806Z,98064.06
2023-04-16T19:37:16.215Z,98061.81
2023-04-16T19:39:20.790Z,98061.25
2023-04-16T19:41:22.105Z,98057.56
2023-04-16T19:43:23.421Z,98054.25
2023-04-16T19:45:27.128Z,98061.09
2023-04-16T19:47:28.556Z,98058.44
2023-04-16T19:49:30.324Z,98067.69
2023-04-16T19:51:32.463Z,98076.06
2023-04-16T19:53:34.698Z,98065.81
2023-04-16T19:55:36.528Z,98058.88
2023-04-16T19:57:37.844Z,98066.19
2023-04-16T19:59:39.187Z,98065.56
2023-04-16T20:01:46.375Z,98065.63
2023-04-16T20:03:47.734Z,98067.28
2023-04-16T20:05:52.118Z,98070.56
2023-04-16T20:07:53.702Z,98063.91
2023-04-16T20:09:55.245Z,98066.50
2023-04-16T20:11:59.982Z,98073.13
2023-04-16T20:14:08.255Z,98069.84
2023-04-16T20:16:13.588Z,98067.81
2023-04-16T20:18:15.373Z,98065.56
2023-04-16T20:20:16.662Z,98066.50
2023-04-16T20:22:18.775Z,98071.78
2023-04-16T20:24:23.872Z,98065.03
2023-04-16T20:26:28.155Z,98064.28
2023-04-16T20:28:29.747Z,98061.66
2023-04-16T20:30:38.628Z,98061.97
2023-04-16T20:32:40.012Z,98071.63
2023-04-16T20:34:41.356Z,98069.78
2023-04-16T20:36:42.739Z,98071.91
2023-04-16T20:38:45.076Z,98057.94
2023-04-16T20:40:49.219Z,98080.44
2023-04-16T20:42:52.141Z,98065.16
2023-04-16T20:44:56.620Z,98076.56
2023-04-16T20:46:58.160Z,98073.25
2023-04-16T20:48:59.490Z,98075.00
2023-04-16T20:51:00.933Z,98081.88
2023-04-16T20:53:02.282Z,98070.31
2023-04-16T20:55:03.708Z,98066.94
2023-04-16T20:57:05.259Z,98070.59
2023-04-16T20:59:06.606Z,98071.06
2023-04-16T21:01:07.918Z,98067.28
2023-04-16T21:03:09.516Z,98075.47
2023-04-16T21:05:14.467Z,98081.16
2023-04-16T21:07:15.803Z,98075.03
2023-04-16T21:09:17.286Z,98081.69
2023-04-16T21:11:18.580Z,98073.81
2023-04-16T21:13:20.985Z,98078.78
2023-04-16T21:15:22.353Z,98077.03
2023-04-16T21:17:23.706Z,98076.22
2023-04-16T21:19:25.036Z,98072.63
2023-04-16T21:21:27.541Z,98082.00
2023-04-16T21:23:28.869Z,98082.84
2023-04-16T21:25:30.335Z,98076.81
2023-04-16T21:27:31.641Z,98086.97
2023-04-16T21:29:32.951Z,98079.28
2023-04-16T21:31:37.289Z,98078.53
2023-04-16T21:33:38.639Z,98081.16
2023-04-16T21:35:39.930Z,98076.94
2023-04-16T21:37:41.263Z,98078.72
2023-04-16T21:39:42.639Z,98073.66
2023-04-16T21:41:44.007Z,98079.75
2023-04-16T21:43:45.618Z,98074.75
2023-04-16T21:45:46.980Z,98082.50
2023-04-16T21:47:48.355Z,98075.78
2023-04-16T21:49:49.663Z,98070.00
2023-04-16T21:51:59.165Z,98070.13
2023-04-16T21:54:00.564Z,98072.66
2023-04-16T21:56:01.907Z,98073.41
2023-04-16T21:58:03.305Z,98069.06
2023-04-16T22:00:09.242Z,98064.81
2023-04-16T22:02:10.627Z,98068.28
2023-04-16T22:04:12.237Z,98070.13
2023-04-16T22:06:14.200Z,98068.47
2023-04-16T22:08:24.214Z,98069.34
2023-04-16T22:10:26.150Z,98066.91
2023-04-16T22:12:28.512Z,98073.78
2023-04-16T22:14:31.878Z,98072.16
2023-04-16T22:16:33.518Z,98070.47
2023-04-16T22:18:34.892Z,98070.47
2023-04-16T22:20:38.976Z,98075.56
2023-04-16T22:22:40.580Z,98076.47
2023-04-16T22:24:41.887Z,98074.13
2023-04-16T22:26:43.304Z,98074.13
2023-04-16T22:28:44.655Z,98073.31
2023-04-16T22:30:45.944Z,98079.34
2023-04-16T22:32:47.316Z,98076.81
2023-04-16T22:34:48.619Z,98076.00
2023-04-16T22:36:49.964Z,98076.88
2023-04-16T22:38:51.258Z,98075.97
2023-04-16T22:40:52.590Z,98079.28
2023-04-16T22:42:53.918Z,98079.19
2023-04-16T22:44:55.313Z,98074.06
2023-04-16T22:46:56.790Z,98071.56
2023-04-16T22:48:58.121Z,98071.56
2023-04-16T22:50:59.473Z,98070.72
2023-04-16T22:53:00.816Z,98074.97
2023-04-16T22:55:02.163Z,98075.81
2023-04-16T22:57:03.514Z,98079.22
2023-04-16T22:59:04.849Z,98076.66
2023-04-16T23:01:06.566Z,98077.50
2023-04-16T23:03:08.084Z,98073.19
2023-04-16T23:05:09.492Z,98082.56
2023-04-16T23:07:10.834Z,98071.44
2023-04-16T23:09:12.346Z,98077.41
2023-04-16T23:11:13.866Z,98074.81
2023-04-16T23:13:15.182Z,98077.38
2023-04-16T23:15:16.512Z,98075.63
2023-04-16T23:17:17.813Z,98073.81
2023-04-16T23:19:19.147Z,98075.44
2023-04-16T23:21:20.611Z,98070.28
2023-04-16T23:23:21.975Z,98066.91
2023-04-16T23:25:23.630Z,98069.53
2023-04-16T23:27:24.925Z,98063.59
2023-04-16T23:29:26.352Z,98067.91
2023-04-16T23:31:27.753Z,98063.69
2023-04-16T23:33:29.075Z,98063.63
2023-04-16T23:35:30.419Z,98061.06
2023-04-16T23:37:31.728Z,98067.09
2023-04-16T23:39:33.062Z,98066.25
2023-04-16T23:41:34.342Z,98067.06
2023-04-16T23:43:36.424Z,98064.53
2023-04-16T23:45:37.771Z,98060.28
2023-04-16T23:47:39.235Z,98067.09
2023-04-16T23:49:40.658Z,98066.13
2023-04-16T23:51:42.015Z,97914.84
2023-04-16T23:53:43.346Z,98054.97
2023-04-16T23:55:44.645Z,98065.16
2023-04-16T23:57:46.353Z,98063.50